sensor_id;sensor_type;location;lat;lon;timestamp;pressure;altitude;pressure_sealevel;temperature;humidity
39773;BME280;25451;51.960;6.250;2023-05-12T00:02:00;101455.72;;;14.17;79.75
39773;BME280;25451;51.960;6.250;2023-05-12T00:04:25;101445.28;;;14.07;79.76
39773;BME280;25451;51.960;6.250;2023-05-12T00:06:50;101433.31;;;14.07;79.69
39773;BME280;25451;51.960;6.250;2023-05-12T00:09:16;101439.56;;;14.14;79.76
39773;BME280;25451;51.960;6.250;2023-05-12T00:11:41;101461.78;;;14.14;79.90
39773;BME280;25451;51.960;6.250;2023-05-12T00:14:06;101414.59;;;13.97;79.86
39773;BME280;25451;51.960;6.250;2023-05-12T00:16:32;101445.88;;;14.09;80.04
39773;BME280;25451;51.960;6.250;2023-05-12T00:18:57;101434.84;;;13.98;79.98
39773;BME280;25451;51.960;6.250;2023-05-12T00:21:22;101441.66;;;14.07;80.17
39773;BME280;25451;51.960;6.250;2023-05-12T00:23:48;101447.47;;;14.05;80.08
39773;BME280;25451;51.960;6.250;2023-05-12T00:26:13;101447.97;;;14.02;80.03
39773;BME280;25451;51.960;6.250;2023-05-12T00:28:38;101435.19;;;14.01;80.14
39773;BME280;25451;51.960;6.250;2023-05-12T00:31:04;101430.97;;;13.99;80.31
39773;BME280;25451;51.960;6.250;2023-05-12T00:33:29;101433.69;;;13.94;80.36
39773;BME280;25451;51.960;6.250;2023-05-12T00:35:55;101429.78;;;13.95;80.38
39773;BME280;25451;51.960;6.250;2023-05-12T00:38:20;101416.59;;;13.85;80.33
39773;BME280;25451;51.960;6.250;2023-05-12T00:40:46;101410.19;;;13.85;80.30
39773;BME280;25451;51.960;6.250;2023-05-12T00:43:11;101423.31;;;13.89;80.49
39773;BME280;25451;51.960;6.250;2023-05-12T00:45:37;101424.44;;;13.88;80.38
39773;BME280;25451;51.960;6.250;2023-05-12T00:48:03;101415.16;;;13.83;80.64
39773;BME280;25451;51.960;6.250;2023-05-12T00:50:29;101421.56;;;13.83;80.51
39773;BME280;25451;51.960;6.250;2023-05-12T00:52:55;101409.38;;;13.84;80.55
39773;BME280;25451;51.960;6.250;2023-05-12T00:55:20;101412.66;;;13.81;80.78
39773;BME280;25451;51.960;6.250;2023-05-12T00:57:46;101425.19;;;13.84;80.66
39773;BME280;25451;51.960;6.250;2023-05-12T01:00:12;101421.81;;;13.82;80.49
39773;BME280;25451;51.960;6.250;2023-05-12T01:02:38;101416.53;;;13.80;80.52
39773;BME280;25451;51.960;6.250;2023-05-12T01:05:04;101416.75;;;13.79;80.51
39773;BME280;25451;51.960;6.250;2023-05-12T01:07:31;101420.91;;;13.76;80.86
39773;BME280;25451;51.960;6.250;2023-05-12T01:09:57;101420.53;;;13.73;80.90
39773;BME280;25451;51.960;6.250;2023-05-12T01:12:24;101410.44;;;13.67;80.89
39773;BME280;25451;51.960;6.250;2023-05-12T01:14:50;101408.25;;;13.69;80.80
39773;BME280;25451;51.960;6.250;2023-05-12T01:17:19;101413.22;;;13.67;80.75
39773;BME280;25451;51.960;6.250;2023-05-12T01:19:51;101413.22;;;13.67;81.02
39773;BME280;25451;51.960;6.250;2023-05-12T01:22:17;101414.34;;;13.66;81.18
39773;BME280;25451;51.960;6.250;2023-05-12T01:25:04;101403.47;;;13.64;81.08
39773;BME280;25451;51.960;6.250;2023-05-12T01:27:30;101410.13;;;13.63;81.13
39773;BME280;25451;51.960;6.250;2023-05-12T01:30:03;101400.34;;;13.61;80.78
39773;BME280;25451;51.960;6.250;2023-05-12T01:32:29;101400.09;;;13.62;81.00
39773;BME280;25451;51.960;6.250;2023-05-12T01:34:55;101397.59;;;13.61;81.05
39773;BME280;25451;51.960;6.250;2023-05-12T01:37:20;101400.34;;;13.61;81.25
39773;BME280;25451;51.960;6.250;2023-05-12T01:39:46;101391.97;;;13.56;81.06
39773;BME280;25451;51.960;6.250;2023-05-12T01:42:11;101401.69;;;13.58;81.01
39773;BME280;25451;51.960;6.250;2023-05-12T01:44:37;101399.16;;;13.57;80.99
39773;BME280;25451;51.960;6.250;2023-05-12T01:47:02;101405.81;;;13.56;81.40
39773;BME280;25451;51.960;6.250;2023-05-12T01:49:27;101346.69;;;13.22;81.10
39773;BME280;25451;51.960;6.250;2023-05-12T01:51:53;101403.66;;;13.58;81.17
39773;BME280;25451;51.960;6.250;2023-05-12T01:54:18;101406.41;;;13.58;81.22
39773;BME280;25451;51.960;6.250;2023-05-12T01:56:43;101396.91;;;13.54;81.31
39773;BME280;25451;51.960;6.250;2023-05-12T01:59:09;101393.78;;;13.50;81.10
39773;BME280;25451;51.960;6.250;2023-05-12T02:01:34;101386.31;;;13.51;81.28
39773;BME280;25451;51.960;6.250;2023-05-12T02:04:01;101399.69;;;13.54;81.41
39773;BME280;25451;51.960;6.250;2023-05-12T02:06:27;101400.28;;;13.56;81.31
39773;BME280;25451;51.960;6.250;2023-05-12T02:08:53;101377.31;;;13.44;81.41
39773;BME280;25451;51.960;6.250;2023-05-12T02:11:18;101401.63;;;13.53;81.35
39773;BME280;25451;51.960;6.250;2023-05-12T02:13:43;101399.44;;;13.55;81.65
39773;BME280;25451;51.960;6.250;2023-05-12T02:16:09;101391.97;;;13.56;81.33
39773;BME280;25451;51.960;6.250;2023-05-12T02:18:35;101397.50;;;13.56;81.35
39773;BME280;25451;51.960;6.250;2023-05-12T02:21:01;101390.00;;;13.56;81.39
39773;BME280;25451;51.960;6.250;2023-05-12T02:23:26;101399.16;;;13.57;81.67
39773;BME280;25451;51.960;6.250;2023-05-12T02:25:51;101395.31;;;13.58;81.62
39773;BME280;25451;51.960;6.250;2023-05-12T02:28:16;101400.88;;;13.58;81.71
39773;BME280;25451;51.960;6.250;2023-05-12T02:30:46;101384.72;;;13.55;81.65
39773;BME280;25451;51.960;6.250;2023-05-12T02:33:16;101385.03;;;13.58;81.63
39773;BME280;25451;51.960;6.250;2023-05-12T02:35:42;101396.13;;;13.58;81.75
39773;BME280;25451;51.960;6.250;2023-05-12T02:38:07;101385.91;;;13.59;81.83
39773;BME280;25451;51.960;6.250;2023-05-12T02:40:33;101389.50;;;13.59;81.90
39773;BME280;25451;51.960;6.250;2023-05-12T02:42:58;101391.44;;;13.59;81.88
39773;BME280;25451;51.960;6.250;2023-05-12T02:45:23;101384.81;;;13.60;81.99
39773;BME280;25451;51.960;6.250;2023-05-12T02:47:48;101382.88;;;13.60;82.09
39773;BME280;25451;51.960;6.250;2023-05-12T02:50:14;101390.09;;;13.61;82.00
39773;BME280;25451;51.960;6.250;2023-05-12T02:52:40;101376.66;;;13.53;82.08
39773;BME280;25451;51.960;6.250;2023-05-12T02:55:06;101378.16;;;13.61;81.85
39773;BME280;25451;51.960;6.250;2023-05-12T02:57:31;101380.94;;;13.61;81.97
39773;BME280;25451;51.960;6.250;2023-05-12T02:59:58;101379.00;;;13.61;82.01
39773;BME280;25451;51.960;6.250;2023-05-12T03:02:24;101367.59;;;13.58;82.09
39773;BME280;25451;51.960;6.250;2023-05-12T03:04:49;101385.41;;;13.62;82.26
39773;BME280;25451;51.960;6.250;2023-05-12T03:07:14;101367.00;;;13.56;82.30
39773;BME280;25451;51.960;6.250;2023-05-12T03:09:40;101376.81;;;13.63;82.30
39773;BME280;25451;51.960;6.250;2023-05-12T03:12:05;101378.84;;;13.68;82.45
39773;BME280;25451;51.960;6.250;2023-05-12T03:14:31;101369.94;;;13.66;82.24
39773;BME280;25451;51.960;6.250;2023-05-12T03:16:56;101366.66;;;13.69;82.34
39773;BME280;25451;51.960;6.250;2023-05-12T03:19:22;101369.16;;;13.70;82.23
39773;BME280;25451;51.960;6.250;2023-05-12T03:21:47;101370.84;;;13.71;82.42
39773;BME280;25451;51.960;6.250;2023-05-12T03:24:12;101384.41;;;13.68;82.61
39773;BME280;25451;51.960;6.250;2023-05-12T03:26:37;101372.88;;;13.76;82.41
39773;BME280;25451;51.960;6.250;2023-05-12T03:29:03;101379.03;;;13.78;82.68
39773;BME280;25451;51.960;6.250;2023-05-12T03:31:28;101372.13;;;13.80;82.49
39773;BME280;25451;51.960;6.250;2023-05-12T03:33:53;101357.56;;;13.73;82.50
39773;BME280;25451;51.960;6.250;2023-05-12T03:36:19;101383.56;;;13.84;82.37
39773;BME280;25451;51.960;6.250;2023-05-12T03:38:44;101389.97;;;13.84;82.59
39773;BME280;25451;51.960;6.250;2023-05-12T03:41:09;101383.03;;;13.87;82.46
39773;BME280;25451;51.960;6.250;2023-05-12T03:43:35;101388.09;;;13.90;82.43
39773;BME280;25451;51.960;6.250;2023-05-12T03:46:00;101392.31;;;13.92;82.48
39773;BME280;25451;51.960;6.250;2023-05-12T03:48:26;101387.56;;;13.93;82.58
39773;BME280;25451;51.960;6.250;2023-05-12T03:50:51;101387.56;;;13.93;82.59
39773;BME280;25451;51.960;6.250;2023-05-12T03:53:16;101385.06;;;13.91;82.39
39773;BME280;25451;51.960;6.250;2023-05-12T03:55:41;101388.44;;;13.93;82.67
39773;BME280;25451;51.960;6.250;2023-05-12T03:58:07;101390.88;;;13.90;82.77
39773;BME280;25451;51.960;6.250;2023-05-12T04:00:32;101383.72;;;13.94;82.73
39773;BME280;25451;51.960;6.250;2023-05-12T04:02:58;101387.56;;;13.93;82.75
39773;BME280;25451;51.960;6.250;2023-05-12T04:05:24;101392.91;;;13.94;82.49
39773;BME280;25451;51.960;6.250;2023-05-12T04:07:49;101394.81;;;13.94;82.76
39773;BME280;25451;51.960;6.250;2023-05-12T04:10:15;101383.31;;;13.85;82.83
39773;BME280;25451;51.960;6.250;2023-05-12T04:12:40;101403.75;;;13.96;82.74
39773;BME280;25451;51.960;6.250;2023-05-12T04:15:06;101384.72;;;13.88;82.65
39773;BME280;25451;51.960;6.250;2023-05-12T04:17:32;101379.94;;;13.83;83.09
39773;BME280;25451;51.960;6.250;2023-05-12T04:19:57;101398.78;;;13.98;82.83
39773;BME280;25451;51.960;6.250;2023-05-12T04:22:23;101407.69;;;14.00;82.95
39773;BME280;25451;51.960;6.250;2023-05-12T04:24:48;101413.81;;;14.02;82.75
39773;BME280;25451;51.960;6.250;2023-05-12T04:27:13;101406.09;;;14.04;82.94
39773;BME280;25451;51.960;6.250;2023-05-12T04:29:39;101404.16;;;14.04;82.98
39773;BME280;25451;51.960;6.250;2023-05-12T04:32:04;101409.44;;;14.06;82.79
39773;BME280;25451;51.960;6.250;2023-05-12T04:34:30;101406.16;;;14.09;82.91
39773;BME280;25451;51.960;6.250;2023-05-12T04:36:55;101388.91;;;14.07;83.01
39773;BME280;25451;51.960;6.250;2023-05-12T04:39:20;101411.47;;;14.10;82.85
39773;BME280;25451;51.960;6.250;2023-05-12T04:41:46;101411.22;;;14.12;82.99
39773;BME280;25451;51.960;6.250;2023-05-12T04:44:11;101410.94;;;14.13;82.96
39773;BME280;25451;51.960;6.250;2023-05-12T04:46:36;101406.84;;;14.16;83.01
39773;BME280;25451;51.960;6.250;2023-05-12T04:49:02;101414.84;;;14.12;82.96
39773;BME280;25451;51.960;6.250;2023-05-12T04:51:27;101423.00;;;14.19;82.73
39773;BME280;25451;51.960;6.250;2023-05-12T04:53:52;101416.84;;;14.17;83.15
39773;BME280;25451;51.960;6.250;2023-05-12T04:56:17;101414.66;;;14.19;83.10
39773;BME280;25451;51.960;6.250;2023-05-12T04:58:43;101425.25;;;14.22;82.94
39773;BME280;25451;51.960;6.250;2023-05-12T05:01:08;101431.97;;;14.26;82.89
39773;BME280;25451;51.960;6.250;2023-05-12T05:03:33;101438.38;;;14.27;83.05
39773;BME280;25451;51.960;6.250;2023-05-12T05:05:59;101442.81;;;14.28;82.94
39773;BME280;25451;51.960;6.250;2023-05-12T05:08:24;101424.66;;;14.20;82.97
39773;BME280;25451;51.960;6.250;2023-05-12T05:10:49;101451.53;;;14.31;83.22
39773;BME280;25451;51.960;6.250;2023-05-12T05:13:15;101441.78;;;14.29;83.18
39773;BME280;25451;51.960;6.250;2023-05-12T05:15:48;101436.53;;;14.32;82.99
39773;BME280;25451;51.960;6.250;2023-05-12T05:18:14;101446.31;;;14.35;83.19
39773;BME280;25451;51.960;6.250;2023-05-12T05:20:39;101454.47;;;14.41;83.51
39773;BME280;25451;51.960;6.250;2023-05-12T05:23:04;101459.44;;;14.39;83.15
39773;BME280;25451;51.960;6.250;2023-05-12T05:25:31;101458.41;;;14.45;82.88
39773;BME280;25451;51.960;6.250;2023-05-12T05:27:56;101462.88;;;14.46;82.75
39773;BME280;25451;51.960;6.250;2023-05-12T05:30:22;101458.91;;;14.42;83.05
39773;BME280;25451;51.960;6.250;2023-05-12T05:32:47;101469.84;;;14.49;83.05
39773;BME280;25451;51.960;6.250;2023-05-12T05:35:13;101478.78;;;14.51;83.09
39773;BME280;25451;51.960;6.250;2023-05-12T05:37:38;101481.28;;;14.52;83.20
39773;BME280;25451;51.960;6.250;2023-05-12T05:40:04;101481.88;;;14.54;83.11
39773;BME280;25451;51.960;6.250;2023-05-12T05:42:29;101479.94;;;14.55;83.15
39773;BME280;25451;51.960;6.250;2023-05-12T05:44:54;101489.94;;;14.56;83.27
39773;BME280;25451;51.960;6.250;2023-05-12T05:47:20;101488.88;;;14.57;83.19
39773;BME280;25451;51.960;6.250;2023-05-12T05:49:45;101499.72;;;14.58;83.13
39773;BME280;25451;51.960;6.250;2023-05-12T05:52:11;101498.63;;;14.59;83.24
39773;BME280;25451;51.960;6.250;2023-05-12T05:54:36;101503.66;;;14.62;83.06
39773;BME280;25451;51.960;6.250;2023-05-12T05:57:01;101510.91;;;14.63;83.14
39773;BME280;25451;51.960;6.250;2023-05-12T05:59:27;101511.78;;;14.64;83.15
39773;BME280;25451;51.960;6.250;2023-05-12T06:01:52;101525.13;;;14.67;83.04
39773;BME280;25451;51.960;6.250;2023-05-12T06:04:17;101521.50;;;14.66;83.17
39773;BME280;25451;51.960;6.250;2023-05-12T06:06:43;101522.94;;;14.69;82.96
39773;BME280;25451;51.960;6.250;2023-05-12T06:09:08;101517.97;;;14.71;83.11
39773;BME280;25451;51.960;6.250;2023-05-12T06:11:36;101521.88;;;14.70;83.05
39773;BME280;25451;51.960;6.250;2023-05-12T06:14:01;101520.00;;;14.75;82.78
39773;BME280;25451;51.960;6.250;2023-05-12T06:16:27;101533.38;;;14.78;83.17
39773;BME280;25451;51.960;6.250;2023-05-12T06:18:53;101538.44;;;14.81;82.98
39773;BME280;25451;51.960;6.250;2023-05-12T06:21:18;101539.88;;;14.84;82.96
39773;BME280;25451;51.960;6.250;2023-05-12T06:23:43;101541.25;;;14.86;82.91
39773;BME280;25451;51.960;6.250;2023-05-12T06:26:09;101549.97;;;14.90;82.88
39773;BME280;25451;51.960;6.250;2023-05-12T06:28:35;101541.84;;;14.88;82.97
39773;BME280;25451;51.960;6.250;2023-05-12T06:31:01;101554.72;;;14.94;83.14
39773;BME280;25451;51.960;6.250;2023-05-12T06:33:26;101557.00;;;14.98;82.86
39773;BME280;25451;51.960;6.250;2023-05-12T06:35:51;101529.06;;;14.87;82.71
39773;BME280;25451;51.960;6.250;2023-05-12T06:38:17;101552.63;;;15.02;82.77
39773;BME280;25451;51.960;6.250;2023-05-12T06:40:42;101554.91;;;15.05;82.67
39773;BME280;25451;51.960;6.250;2023-05-12T06:43:07;101553.28;;;15.09;82.75
39773;BME280;25451;51.960;6.250;2023-05-12T06:45:32;101553.34;;;15.14;82.71
39773;BME280;25451;51.960;6.250;2023-05-12T06:47:58;101566.22;;;15.20;82.72
39773;BME280;25451;51.960;6.250;2023-05-12T06:50:23;101572.94;;;15.24;82.50
39773;BME280;25451;51.960;6.250;2023-05-12T06:52:48;101573.84;;;15.29;82.49
39773;BME280;25451;51.960;6.250;2023-05-12T06:55:14;101585.91;;;15.35;82.22
39773;BME280;25451;51.960;6.250;2023-05-12T06:57:43;101564.47;;;15.35;82.22
39773;BME280;25451;51.960;6.250;2023-05-12T07:00:09;101573.81;;;15.46;82.40
39773;BME280;25451;51.960;6.250;2023-05-12T07:02:34;101578.63;;;15.50;82.21
39773;BME280;25451;51.960;6.250;2023-05-12T07:05:00;101583.16;;;15.56;82.02
39773;BME280;25451;51.960;6.250;2023-05-12T07:07:25;101584.31;;;15.60;81.87
39773;BME280;25451;51.960;6.250;2023-05-12T07:09:51;101581.03;;;15.63;81.89
39773;BME280;25451;51.960;6.250;2023-05-12T07:12:16;101590.53;;;15.67;81.91
39773;BME280;25451;51.960;6.250;2023-05-12T07:14:41;101585.28;;;15.71;81.75
39773;BME280;25451;51.960;6.250;2023-05-12T07:17:07;101582.53;;;15.76;81.69
39773;BME280;25451;51.960;6.250;2023-05-12T07:19:32;101583.72;;;15.80;81.76
39773;BME280;25451;51.960;6.250;2023-05-12T07:21:59;101589.63;;;15.84;81.51
39773;BME280;25451;51.960;6.250;2023-05-12T07:24:24;101576.78;;;15.83;81.46
39773;BME280;25451;51.960;6.250;2023-05-12T07:26:51;101592.78;;;15.92;81.37
39773;BME280;25451;51.960;6.250;2023-05-12T07:29:16;101583.63;;;15.97;81.13
39773;BME280;25451;51.960;6.250;2023-05-12T07:31:42;101589.53;;;16.00;80.98
39773;BME280;25451;51.960;6.250;2023-05-12T07:34:07;101596.03;;;16.11;80.79
39773;BME280;25451;51.960;6.250;2023-05-12T07:36:33;101595.50;;;16.14;80.63
39773;BME280;25451;51.960;6.250;2023-05-12T07:38:58;101591.97;;;16.23;80.40
39773;BME280;25451;51.960;6.250;2023-05-12T07:41:23;101595.41;;;16.30;80.35
39773;BME280;25451;51.960;6.250;2023-05-12T07:43:49;101568.34;;;16.26;80.19
39773;BME280;25451;51.960;6.250;2023-05-12T07:46:14;101592.75;;;16.45;79.82
39773;BME280;25451;51.960;6.250;2023-05-12T07:48:39;101600.44;;;16.60;79.73
39773;BME280;25451;51.960;6.250;2023-05-12T07:51:05;101586.28;;;16.67;79.46
39773;BME280;25451;51.960;6.250;2023-05-12T07:53:31;101598.94;;;16.79;79.30
39773;BME280;25451;51.960;6.250;2023-05-12T07:55:57;101601.50;;;16.86;79.25
39773;BME280;25451;51.960;6.250;2023-05-12T07:58:22;101602.16;;;16.98;79.13
39773;BME280;25451;51.960;6.250;2023-05-12T08:00:47;101606.38;;;17.05;78.88
39773;BME280;25451;51.960;6.250;2023-05-12T08:03:13;101601.38;;;17.07;78.76
39773;BME280;25451;51.960;6.250;2023-05-12T08:05:40;101605.59;;;17.15;78.53
39773;BME280;25451;51.960;6.250;2023-05-12T08:08:05;101605.09;;;17.23;78.30
39773;BME280;25451;51.960;6.250;2023-05-12T08:10:31;101600.91;;;17.25;77.93
39773;BME280;25451;51.960;6.250;2023-05-12T08:12:57;101620.28;;;17.42;77.72
39773;BME280;25451;51.960;6.250;2023-05-12T08:15:22;101608.88;;;17.49;77.48
39773;BME280;25451;51.960;6.250;2023-05-12T08:17:47;101615.34;;;17.59;77.39
39773;BME280;25451;51.960;6.250;2023-05-12T08:20:13;101626.28;;;17.66;77.06
39773;BME280;25451;51.960;6.250;2023-05-12T08:22:38;101623.53;;;17.71;76.86
39773;BME280;25451;51.960;6.250;2023-05-12T08:25:04;101631.91;;;17.76;76.84
39773;BME280;25451;51.960;6.250;2023-05-12T08:27:30;101635.59;;;17.81;76.58
39773;BME280;25451;51.960;6.250;2023-05-12T08:29:55;101636.72;;;17.85;76.53
39773;BME280;25451;51.960;6.250;2023-05-12T08:32:20;101635.63;;;17.91;76.43
39773;BME280;25451;51.960;6.250;2023-05-12T08:34:46;101645.69;;;17.97;76.27
39773;BME280;25451;51.960;6.250;2023-05-12T08:37:11;101638.44;;;18.01;76.21
39773;BME280;25451;51.960;6.250;2023-05-12T08:39:37;101644.31;;;18.05;75.80
39773;BME280;25451;51.960;6.250;2023-05-12T08:44:46;101654.13;;;18.07;75.50
39773;BME280;25451;51.960;6.250;2023-05-12T08:47:12;101656.06;;;18.07;75.33
39773;BME280;25451;51.960;6.250;2023-05-12T08:49:41;101654.13;;;18.07;75.07
39773;BME280;25451;51.960;6.250;2023-05-12T08:52:08;101655.78;;;18.08;74.90
39773;BME280;25451;51.960;6.250;2023-05-12T08:54:34;101666.72;;;18.10;74.82
39773;BME280;25451;51.960;6.250;2023-05-12T08:57:00;101671.16;;;18.11;74.81
39773;BME280;25451;51.960;6.250;2023-05-12T08:59:26;101672.28;;;18.10;74.47
39773;BME280;25451;51.960;6.250;2023-05-12T09:01:53;101661.94;;;18.10;74.34
39773;BME280;25451;51.960;6.250;2023-05-12T09:04:19;101673.44;;;18.14;74.08
39773;BME280;25451;51.960;6.250;2023-05-12T09:06:45;101675.66;;;18.12;73.90
39773;BME280;25451;51.960;6.250;2023-05-12T09:09:12;101674.81;;;18.11;73.75
39773;BME280;25451;51.960;6.250;2023-05-12T09:11:40;101665.56;;;18.06;73.47
39773;BME280;25451;51.960;6.250;2023-05-12T09:14:09;101667.53;;;18.05;73.29
39773;BME280;25451;51.960;6.250;2023-05-12T09:16:43;101681.50;;;18.05;72.82
39773;BME280;25451;51.960;6.250;2023-05-12T09:19:09;101677.56;;;18.01;72.79
39773;BME280;25451;51.960;6.250;2023-05-12T09:21:34;101681.75;;;17.99;72.41
39773;BME280;25451;51.960;6.250;2023-05-12T09:24:05;101676.16;;;17.99;72.12
39773;BME280;25451;51.960;6.250;2023-05-12T09:26:43;101678.97;;;18.04;72.26
39773;BME280;25451;51.960;6.250;2023-05-12T09:29:09;101684.56;;;18.09;72.33
39773;BME280;25451;51.960;6.250;2023-05-12T09:31:35;101673.69;;;18.12;72.08
39773;BME280;25451;51.960;6.250;2023-05-12T09:34:06;101684.88;;;18.17;71.73
39773;BME280;25451;51.960;6.250;2023-05-12T09:36:33;101676.50;;;18.22;71.73
39773;BME280;25451;51.960;6.250;2023-05-12T09:39:06;101675.97;;;18.26;71.32
39773;BME280;25451;51.960;6.250;2023-05-12T09:41:38;101684.91;;;18.28;71.01
39773;BME280;25451;51.960;6.250;2023-05-12T09:44:05;101692.75;;;18.26;70.82
39773;BME280;25451;51.960;6.250;2023-05-12T09:46:31;101693.84;;;18.24;70.76
39773;BME280;25451;51.960;6.250;2023-05-12T09:48:57;101695.81;;;18.24;70.61
39773;BME280;25451;51.960;6.250;2023-05-12T09:51:23;101697.19;;;18.27;70.70
39773;BME280;25451;51.960;6.250;2023-05-12T09:53:49;101697.50;;;18.30;70.59
39773;BME280;25451;51.960;6.250;2023-05-12T09:56:15;101688.84;;;18.32;70.35
39773;BME280;25451;51.960;6.250;2023-05-12T09:58:43;101688.84;;;18.37;70.49
39773;BME280;25451;51.960;6.250;2023-05-12T10:01:11;101693.94;;;18.45;70.53
39773;BME280;25451;51.960;6.250;2023-05-12T10:03:37;101705.13;;;18.50;70.62
39773;BME280;25451;51.960;6.250;2023-05-12T10:06:05;101690.03;;;18.46;70.45
39773;BME280;25451;51.960;6.250;2023-05-12T10:08:45;101701.81;;;18.53;69.92
39773;BME280;25451;51.960;6.250;2023-05-12T10:11:13;101702.63;;;18.53;69.86
39773;BME280;25451;51.960;6.250;2023-05-12T10:13:38;101706.53;;;18.57;70.02
39773;BME280;25451;51.960;6.250;2023-05-12T10:16:06;101702.06;;;18.61;69.79
39773;BME280;25451;51.960;6.250;2023-05-12T10:18:32;101703.50;;;18.69;69.71
39773;BME280;25451;51.960;6.250;2023-05-12T10:20:59;101688.66;;;18.63;69.36
39773;BME280;25451;51.960;6.250;2023-05-12T10:23:26;101702.41;;;18.75;69.45
39773;BME280;25451;51.960;6.250;2023-05-12T10:25:53;101702.66;;;18.78;69.38
39773;BME280;25451;51.960;6.250;2023-05-12T10:28:18;101709.09;;;18.84;69.36
39773;BME280;25451;51.960;6.250;2023-05-12T10:30:45;101706.31;;;18.89;69.04
39773;BME280;25451;51.960;6.250;2023-05-12T10:33:12;101702.13;;;18.91;68.91
39773;BME280;25451;51.960;6.250;2023-05-12T10:35:38;101680.00;;;18.80;68.65
39773;BME280;25451;51.960;6.250;2023-05-12T10:38:09;101699.06;;;19.03;68.35
39773;BME280;25451;51.960;6.250;2023-05-12T10:40:36;101704.38;;;19.10;68.12
39773;BME280;25451;51.960;6.250;2023-05-12T10:43:01;101698.47;;;19.16;67.91
39773;BME280;25451;51.960;6.250;2023-05-12T10:45:27;101714.72;;;19.24;67.76
39773;BME280;25451;51.960;6.250;2023-05-12T10:48:03;101708.56;;;19.32;67.42
39773;BME280;25451;51.960;6.250;2023-05-12T10:50:29;101693.72;;;19.37;67.44
39773;BME280;25451;51.960;6.250;2023-05-12T10:52:55;101699.88;;;19.49;67.52
39773;BME280;25451;51.960;6.250;2023-05-12T10:55:35;101704.09;;;19.56;67.05
39773;BME280;25451;51.960;6.250;2023-05-12T10:58:09;101682.22;;;19.53;67.04
39773;BME280;25451;51.960;6.250;2023-05-12T11:00:48;101692.84;;;19.66;66.77
39773;BME280;25451;51.960;6.250;2023-05-12T11:03:15;101689.22;;;19.66;66.83
39773;BME280;25451;51.960;6.250;2023-05-12T11:05:42;101702.63;;;19.69;66.77
39773;BME280;25451;51.960;6.250;2023-05-12T11:08:07;101697.31;;;19.72;66.69
39773;BME280;25451;51.960;6.250;2023-05-12T11:10:33;101691.97;;;19.76;66.66
39773;BME280;25451;51.960;6.250;2023-05-12T11:12:58;101691.13;;;19.75;66.37
39773;BME280;25451;51.960;6.250;2023-05-12T11:15:24;101694.22;;;19.79;66.09
39773;BME280;25451;51.960;6.250;2023-05-12T11:17:49;101700.94;;;19.78;66.01
39773;BME280;25451;51.960;6.250;2023-05-12T11:20:22;101695.34;;;19.78;65.81
39773;BME280;25451;51.960;6.250;2023-05-12T11:22:47;101702.91;;;19.82;65.80
39773;BME280;25451;51.960;6.250;2023-05-12T11:25:13;101702.84;;;19.88;65.72
39773;BME280;25451;51.960;6.250;2023-05-12T11:27:45;101705.09;;;19.91;65.29
39773;BME280;25451;51.960;6.250;2023-05-12T11:30:10;101703.69;;;19.93;65.33
39773;BME280;25451;51.960;6.250;2023-05-12T11:32:35;101707.88;;;19.96;65.33
39773;BME280;25451;51.960;6.250;2023-05-12T11:37:40;101702.56;;;19.99;64.86
39773;BME280;25451;51.960;6.250;2023-05-12T11:40:20;101715.13;;;20.07;64.62
39773;BME280;25451;51.960;6.250;2023-05-12T11:42:47;101694.97;;;20.05;64.29
39773;BME280;25451;51.960;6.250;2023-05-12T11:47:45;101713.41;;;20.16;63.78
39773;BME280;25451;51.960;6.250;2023-05-12T11:50:10;101699.97;;;20.18;63.58
39773;BME280;25451;51.960;6.250;2023-05-12T11:52:36;101703.34;;;20.20;63.32
39773;BME280;25451;51.960;6.250;2023-05-12T11:55:01;101702.47;;;20.24;62.97
39773;BME280;25451;51.960;6.250;2023-05-12T11:57:31;101710.59;;;20.26;63.06
39773;BME280;25451;51.960;6.250;2023-05-12T12:00:02;101701.59;;;20.29;62.81
39773;BME280;25451;51.960;6.250;2023-05-12T12:02:28;101709.16;;;20.33;62.71
39773;BME280;25451;51.960;6.250;2023-05-12T12:04:53;101705.50;;;20.38;62.45
39773;BME280;25451;51.960;6.250;2023-05-12T12:07:33;101706.06;;;20.40;62.38
39773;BME280;25451;51.960;6.250;2023-05-12T12:10:11;101706.59;;;20.42;62.14
39773;BME280;25451;51.960;6.250;2023-05-12T12:12:37;101723.97;;;20.44;62.01
39773;BME280;25451;51.960;6.250;2023-05-12T12:15:03;101700.41;;;20.45;61.86
39773;BME280;25451;51.960;6.250;2023-05-12T12:17:29;101709.91;;;20.49;61.81
39773;BME280;25451;51.960;6.250;2023-05-12T12:19:55;101713.25;;;20.56;61.75
39773;BME280;25451;51.960;6.250;2023-05-12T12:22:21;101716.00;;;20.61;61.87
39773;BME280;25451;51.960;6.250;2023-05-12T12:24:46;101710.63;;;20.70;61.68
39773;BME280;25451;51.960;6.250;2023-05-12T12:27:11;101722.41;;;20.72;61.40
39773;BME280;25451;51.960;6.250;2023-05-12T12:29:37;101723.25;;;20.72;61.12
39773;BME280;25451;51.960;6.250;2023-05-12T12:32:02;101698.59;;;20.64;60.94
39773;BME280;25451;51.960;6.250;2023-05-12T12:34:28;101709.50;;;20.71;60.73
39773;BME280;25451;51.960;6.250;2023-05-12T12:36:53;101729.16;;;20.71;60.75
39773;BME280;25451;51.960;6.250;2023-05-12T12:39:18;101726.06;;;20.67;60.52
39773;BME280;25451;51.960;6.250;2023-05-12T12:41:46;101725.53;;;20.65;60.41
39773;BME280;25451;51.960;6.250;2023-05-12T12:44:12;101720.19;;;20.63;60.18
39773;BME280;25451;51.960;6.250;2023-05-12T12:46:37;101718.25;;;20.64;60.03
39773;BME280;25451;51.960;6.250;2023-05-12T12:49:02;101721.06;;;20.64;59.53
39773;BME280;25451;51.960;6.250;2023-05-12T12:51:28;101718.25;;;20.64;59.46
39773;BME280;25451;51.960;6.250;2023-05-12T12:53:55;101715.47;;;20.59;59.19